createdAt,value
2023-05-14T00:01:05.742Z,21.99
2023-05-14T00:03:54.519Z,21.98
2023-05-14T00:06:23.538Z,21.95
2023-05-14T00:09:28.588Z,21.94
2023-05-14T00:12:58.722Z,21.93
2023-05-14T00:15:28.815Z,21.93
2023-05-14T00:18:29.749Z,21.93
2023-05-14T00:21:05.466Z,21.91
2023-05-14T00:24:14.770Z,21.91
2023-05-14T00:27:29.856Z,21.88
2023-05-14T00:30:08.276Z,21.86
2023-05-14T00:32:57.487Z,21.83
2023-05-14T00:35:38.929Z,21.82
2023-05-14T00:38:18.108Z,21.82
2023-05-14T00:41:27.963Z,21.81
2023-05-14T00:44:21.415Z,21.80
2023-05-14T00:46:50.898Z,21.79
2023-05-14T00:49:23.077Z,21.77
2023-05-14T00:52:06.340Z,21.76
2023-05-14T00:54:56.076Z,21.73
2023-05-14T00:57:26.081Z,21.73
2023-05-14T01:00:16.794Z,21.72
2023-05-14T01:02:48.653Z,21.72
2023-05-14T01:05:41.778Z,21.71
2023-05-14T01:08:51.574Z,21.69
2023-05-14T01:11:39.520Z,21.69
2023-05-14T01:14:46.873Z,21.69
2023-05-14T01:17:21.837Z,21.69
2023-05-14T01:20:13.870Z,21.69
2023-05-14T01:22:42.846Z,21.69
2023-05-14T01:25:42.657Z,21.70
2023-05-14T01:28:40.428Z,21.71
2023-05-14T01:31:37.489Z,21.70
2023-05-14T01:34:08.200Z,21.67
2023-05-14T01:37:08.302Z,21.64
2023-05-14T01:40:12.646Z,21.59
2023-05-14T01:42:54.320Z,21.56
2023-05-14T01:45:47.148Z,21.53
2023-05-14T01:48:48.191Z,21.50
2023-05-14T01:51:40.260Z,21.47
2023-05-14T01:54:59.451Z,21.44
2023-05-14T01:58:19.256Z,21.41
2023-05-14T02:00:48.386Z,21.38
2023-05-14T02:03:31.004Z,21.35
2023-05-14T02:06:27.262Z,21.34
2023-05-14T02:09:47.399Z,21.33
2023-05-14T02:12:36.910Z,21.30
2023-05-14T02:15:55.795Z,21.27
2023-05-14T02:18:45.315Z,21.24
2023-05-14T02:21:51.272Z,21.21
2023-05-14T02:24:53.246Z,21.17
2023-05-14T02:28:22.651Z,21.13
2023-05-14T02:31:15.398Z,21.09
2023-05-14T02:34:35.030Z,21.05
2023-05-14T02:38:04.008Z,21.01
2023-05-14T02:41:17.746Z,20.96
2023-05-14T02:44:39.679Z,20.93
2023-05-14T02:47:47.837Z,20.90
2023-05-14T02:51:08.392Z,20.87
2023-05-14T02:54:10.480Z,20.82
2023-05-14T02:56:42.653Z,20.77
2023-05-14T02:59:33.475Z,20.71
2023-05-14T03:02:14.560Z,20.65
2023-05-14T03:05:27.252Z,20.60
2023-05-14T03:07:56.229Z,20.54
2023-05-14T03:10:48.939Z,20.49
2023-05-14T03:13:21.947Z,20.45
2023-05-14T03:15:55.873Z,20.38
2023-05-14T03:18:25.417Z,20.32
2023-05-14T03:21:35.608Z,20.27
2023-05-14T03:24:11.166Z,20.19
2023-05-14T03:27:40.497Z,20.12
2023-05-14T03:31:00.181Z,20.03
2023-05-14T03:34:15.720Z,19.94
2023-05-14T03:37:45.035Z,19.87
2023-05-14T03:41:04.823Z,19.81
2023-05-14T03:44:28.391Z,19.73
2023-05-14T03:47:30.798Z,19.67
2023-05-14T03:50:58.948Z,19.60
2023-05-14T03:54:19.870Z,19.53
2023-05-14T03:57:41.999Z,19.48
2023-05-14T04:00:11.807Z,19.41
2023-05-14T04:03:14.310Z,19.37
2023-05-14T04:06:03.360Z,19.34
2023-05-14T04:09:31.825Z,19.32
2023-05-14T04:12:44.261Z,19.29
2023-05-14T04:16:14.419Z,19.28
2023-05-14T04:19:15.118Z,19.26
2023-05-14T04:22:37.170Z,19.23
2023-05-14T04:26:06.243Z,19.20
2023-05-14T04:29:34.398Z,19.17
2023-05-14T04:32:43.650Z,19.15
2023-05-14T04:35:55.798Z,19.11
2023-05-14T04:39:26.533Z,19.05
2023-05-14T04:42:55.971Z,19.01
2023-05-14T04:46:25.338Z,18.97
2023-05-14T04:49:54.689Z,18.93
2023-05-14T04:53:23.826Z,18.87
2023-05-14T04:56:53.258Z,18.84
2023-05-14T05:00:12.948Z,18.78
2023-05-14T05:03:32.773Z,18.75
2023-05-14T05:07:02.041Z,18.70
2023-05-14T05:10:32.850Z,18.67
2023-05-14T05:13:42.013Z,18.60
2023-05-14T05:17:11.189Z,18.53
2023-05-14T05:20:30.740Z,18.44
2023-05-14T05:23:59.990Z,18.35
2023-05-14T05:27:29.347Z,18.22
2023-05-14T05:30:58.727Z,18.09
2023-05-14T05:34:08.171Z,17.97
2023-05-14T05:37:37.686Z,17.89
2023-05-14T05:41:06.982Z,17.79
2023-05-14T05:44:36.064Z,17.69
2023-05-14T05:48:05.661Z,17.60
2023-05-14T05:51:34.807Z,17.52
2023-05-14T05:55:04.034Z,17.42
2023-05-14T05:58:33.521Z,17.34
2023-05-14T06:02:02.884Z,17.24
2023-05-14T06:05:32.569Z,17.16
2023-05-14T06:09:02.964Z,17.10
2023-05-14T06:12:33.961Z,17.05
2023-05-14T06:16:03.740Z,16.98
2023-05-14T06:19:33.747Z,16.89
2023-05-14T06:23:03.199Z,16.83
2023-05-14T06:26:33.894Z,16.75
2023-05-14T06:30:04.389Z,16.69
2023-05-14T06:33:33.047Z,16.65
2023-05-14T06:37:02.223Z,16.60
2023-05-14T06:40:31.551Z,16.54
2023-05-14T06:44:01.630Z,16.47
2023-05-14T06:47:25.209Z,16.41
2023-05-14T06:50:54.633Z,16.36
2023-05-14T06:54:23.870Z,16.30
2023-05-14T06:57:54.297Z,16.25
2023-05-14T07:01:04.271Z,16.20
2023-05-14T07:04:34.506Z,16.16
2023-05-14T07:08:14.893Z,16.10
2023-05-14T07:11:44.347Z,16.06
2023-05-14T07:15:13.697Z,16.03
2023-05-14T07:18:43.292Z,16.03
2023-05-14T07:21:53.383Z,16.05
2023-05-14T07:25:22.965Z,16.06
2023-05-14T07:28:35.467Z,16.08
2023-05-14T07:31:54.953Z,16.11
2023-05-14T07:35:17.873Z,16.14
2023-05-14T07:38:36.184Z,16.17
2023-05-14T07:41:52.424Z,16.21
2023-05-14T07:45:21.625Z,16.27
2023-05-14T07:48:31.217Z,16.30
2023-05-14T07:52:01.142Z,16.33
2023-05-14T07:55:23.385Z,16.36
2023-05-14T07:58:26.210Z,16.37
2023-05-14T08:01:55.678Z,16.38
2023-05-14T08:05:26.178Z,16.38
2023-05-14T08:08:55.585Z,16.38
2023-05-14T08:12:24.778Z,16.37
2023-05-14T08:15:53.588Z,16.35
2023-05-14T08:19:23.566Z,16.34
2023-05-14T08:22:52.538Z,16.31
2023-05-14T08:26:21.976Z,16.30
2023-05-14T08:29:41.888Z,16.28
2023-05-14T08:32:51.562Z,16.24
2023-05-14T08:36:20.720Z,16.20
2023-05-14T08:39:49.853Z,16.16
2023-05-14T08:43:17.618Z,16.15
2023-05-14T08:46:37.138Z,16.15
2023-05-14T08:50:20.403Z,16.14
2023-05-14T08:53:51.238Z,16.15
2023-05-14T08:57:20.500Z,16.13
2023-05-14T09:00:50.138Z,16.10
2023-05-14T09:04:10.461Z,16.08
2023-05-14T09:07:39.765Z,16.05
2023-05-14T09:11:09.137Z,16.02
2023-05-14T09:14:38.553Z,15.96
2023-05-14T09:18:08.337Z,15.90
2023-05-14T09:21:37.804Z,15.86
2023-05-14T09:25:07.429Z,15.85
2023-05-14T09:28:36.691Z,15.84
2023-05-14T09:32:06.225Z,15.81
2023-05-14T09:35:26.046Z,15.78
2023-05-14T09:38:55.089Z,15.76
2023-05-14T09:42:24.591Z,15.72
2023-05-14T09:45:53.797Z,15.70
2023-05-14T09:49:23.108Z,15.65
2023-05-14T09:52:52.295Z,15.59
2023-05-14T09:56:22.578Z,15.51
2023-05-14T09:59:52.211Z,15.46
2023-05-14T10:03:28.816Z,15.47
2023-05-14T10:06:58.073Z,15.47
2023-05-14T10:10:17.175Z,15.48
2023-05-14T10:13:20.058Z,15.48
2023-05-14T10:16:38.090Z,15.48
2023-05-14T10:20:08.278Z,15.46
2023-05-14T10:23:37.548Z,15.46
2023-05-14T10:27:07.208Z,15.44
2023-05-14T10:30:36.349Z,15.45
2023-05-14T10:34:08.413Z,15.50
2023-05-14T10:37:37.952Z,15.56
2023-05-14T10:41:07.506Z,15.62
2023-05-14T10:44:39.714Z,15.68
2023-05-14T10:48:09.038Z,15.74
2023-05-14T10:51:38.439Z,15.77
2023-05-14T10:55:03.398Z,15.82
2023-05-14T10:58:17.911Z,15.85
2023-05-14T11:01:48.487Z,15.89
2023-05-14T11:05:21.268Z,15.92
2023-05-14T11:08:50.899Z,15.96
2023-05-14T11:12:20.116Z,15.99
2023-05-14T11:15:19.514Z,15.97
2023-05-14T11:18:32.426Z,15.96
2023-05-14T11:22:05.201Z,15.99
2023-05-14T11:25:24.426Z,16.00
2023-05-14T11:28:53.673Z,16.03
2023-05-14T11:32:24.468Z,16.04
2023-05-14T11:35:54.020Z,16.06
2023-05-14T11:39:29.341Z,16.06
2023-05-14T11:42:58.516Z,16.04
2023-05-14T11:46:27.947Z,16.01
2023-05-14T11:49:37.022Z,15.97
2023-05-14T11:52:47.616Z,15.91
2023-05-14T11:55:23.486Z,15.86
2023-05-14T11:58:13.976Z,15.82
2023-05-14T12:01:44.884Z,15.76
2023-05-14T12:05:13.795Z,15.70
2023-05-14T12:08:43.275Z,15.61
2023-05-14T12:12:12.548Z,15.55
2023-05-14T12:15:42.745Z,15.51
2023-05-14T12:19:15.016Z,15.44
2023-05-14T12:22:44.513Z,15.40
2023-05-14T12:26:13.626Z,15.37
2023-05-14T12:29:43.779Z,15.33
2023-05-14T12:33:14.402Z,15.30
2023-05-14T12:36:42.802Z,15.26
2023-05-14T12:39:55.529Z,15.22
2023-05-14T12:42:30.582Z,15.18
2023-05-14T12:45:10.732Z,15.15
2023-05-14T12:47:39.901Z,15.12
2023-05-14T12:50:39.517Z,15.11
2023-05-14T12:53:28.571Z,15.07
2023-05-14T12:56:58.192Z,15.04
2023-05-14T13:00:18.755Z,14.99
2023-05-14T13:03:49.045Z,14.96
2023-05-14T13:07:18.379Z,14.94
2023-05-14T13:10:47.801Z,14.86
2023-05-14T13:14:18.371Z,14.82
2023-05-14T13:17:49.886Z,14.77
2023-05-14T13:21:19.521Z,14.75
2023-05-14T13:24:49.003Z,14.73
2023-05-14T13:28:18.581Z,14.72
2023-05-14T13:31:47.961Z,14.69
2023-05-14T13:35:17.425Z,14.69
2023-05-14T13:38:46.513Z,14.72
2023-05-14T13:42:05.746Z,14.77
2023-05-14T13:45:34.845Z,14.84
2023-05-14T13:49:04.311Z,14.93
2023-05-14T13:52:23.794Z,15.03
2023-05-14T13:55:53.008Z,15.11
2023-05-14T13:59:23.599Z,15.22
2023-05-14T14:02:53.402Z,15.31
2023-05-14T14:05:42.833Z,15.41
2023-05-14T14:08:57.477Z,15.50
2023-05-14T14:12:20.904Z,15.58
2023-05-14T14:15:19.025Z,15.66
2023-05-14T14:18:48.158Z,15.72
2023-05-14T14:22:17.722Z,15.78
2023-05-14T14:25:47.897Z,15.84
2023-05-14T14:29:17.119Z,15.88
2023-05-14T14:32:40.103Z,15.92
2023-05-14T14:36:09.410Z,15.96
2023-05-14T14:39:38.962Z,16.01
2023-05-14T14:43:08.422Z,16.05
2023-05-14T14:46:37.931Z,16.09
2023-05-14T14:50:07.819Z,16.13
2023-05-14T14:53:37.527Z,16.13
2023-05-14T14:57:07.969Z,16.14
2023-05-14T15:00:26.610Z,16.11
2023-05-14T15:03:16.443Z,16.11
2023-05-14T15:06:26.518Z,16.11
2023-05-14T15:09:37.781Z,16.11
2023-05-14T15:13:07.369Z,16.13
2023-05-14T15:16:36.799Z,16.15
2023-05-14T15:20:06.439Z,16.15
2023-05-14T15:23:35.828Z,16.15
2023-05-14T15:26:55.545Z,16.16
2023-05-14T15:30:08.657Z,16.16
2023-05-14T15:33:40.512Z,16.17
2023-05-14T15:37:09.675Z,16.19
2023-05-14T15:40:38.857Z,16.20
2023-05-14T15:44:08.441Z,16.22
2023-05-14T15:47:37.690Z,16.24
2023-05-14T15:51:07.410Z,16.28
2023-05-14T15:54:37.145Z,16.33
2023-05-14T15:57:49.890Z,16.37
2023-05-14T16:00:56.141Z,16.41
2023-05-14T16:04:25.424Z,16.44
2023-05-14T16:07:54.847Z,16.46
2023-05-14T16:11:24.196Z,16.48
2023-05-14T16:14:53.471Z,16.49
2023-05-14T16:18:22.923Z,16.49
2023-05-14T16:21:36.517Z,16.50
2023-05-14T16:25:05.918Z,16.50
2023-05-14T16:27:59.507Z,16.49
2023-05-14T16:31:29.802Z,16.50
2023-05-14T16:34:41.733Z,16.49
2023-05-14T16:38:10.898Z,16.49
2023-05-14T16:41:11.706Z,16.49
2023-05-14T16:44:04.749Z,16.49
2023-05-14T16:47:04.910Z,16.50
2023-05-14T16:50:30.999Z,16.52
2023-05-14T16:54:00.258Z,16.53
2023-05-14T16:57:29.676Z,16.55
2023-05-14T17:00:59.511Z,16.57
2023-05-14T17:04:29.980Z,16.59
2023-05-14T17:08:00.201Z,16.62
2023-05-14T17:10:31.306Z,16.66
2023-05-14T17:14:01.290Z,16.71
2023-05-14T17:17:30.706Z,16.78
2023-05-14T17:21:01.721Z,16.85
2023-05-14T17:24:32.593Z,16.94
2023-05-14T17:28:01.866Z,17.01
2023-05-14T17:30:47.674Z,17.09
2023-05-14T17:34:07.366Z,17.15
2023-05-14T17:37:28.160Z,17.22
2023-05-14T17:40:07.688Z,17.30
2023-05-14T17:43:17.576Z,17.36
2023-05-14T17:46:46.937Z,17.44
2023-05-14T17:50:10.359Z,17.53
2023-05-14T17:53:40.172Z,17.62
2023-05-14T17:57:09.535Z,17.71
2023-05-14T18:00:27.943Z,17.81
2023-05-14T18:03:58.258Z,17.90
2023-05-14T18:07:10.765Z,17.97
2023-05-14T18:10:39.789Z,18.05
2023-05-14T18:14:09.435Z,18.14
2023-05-14T18:17:38.879Z,18.20
2023-05-14T18:20:58.639Z,18.26
2023-05-14T18:24:28.033Z,18.29
2023-05-14T18:27:57.180Z,18.32
2023-05-14T18:31:26.781Z,18.34
2023-05-14T18:34:56.179Z,18.37
2023-05-14T18:38:25.505Z,18.40
2023-05-14T18:41:53.748Z,18.46
2023-05-14T18:45:23.777Z,18.51
2023-05-14T18:48:52.967Z,18.58
2023-05-14T18:52:03.299Z,18.64
2023-05-14T18:55:32.466Z,18.71
2023-05-14T18:58:33.648Z,18.79
2023-05-14T19:02:02.980Z,18.85
2023-05-14T19:05:32.171Z,18.92
2023-05-14T19:08:42.111Z,18.96
2023-05-14T19:12:11.683Z,19.01
2023-05-14T19:15:31.426Z,19.08
2023-05-14T19:19:00.728Z,19.13
2023-05-14T19:22:29.766Z,19.18
2023-05-14T19:25:41.261Z,19.24
2023-05-14T19:29:10.335Z,19.31
2023-05-14T19:32:39.925Z,19.36
2023-05-14T19:35:09.165Z,19.46
2023-05-14T19:38:18.323Z,19.50
2023-05-14T19:41:47.461Z,19.58
2023-05-14T19:44:37.654Z,19.66
2023-05-14T19:47:17.300Z,19.70
2023-05-14T19:49:58.730Z,19.77
2023-05-14T19:52:51.157Z,19.85
2023-05-14T19:55:33.403Z,19.91
2023-05-14T19:59:02.987Z,19.96
2023-05-14T20:02:32.369Z,20.03
2023-05-14T20:06:02.497Z,20.09
2023-05-14T20:09:31.960Z,20.12
2023-05-14T20:13:02.828Z,20.18
2023-05-14T20:16:24.916Z,20.26
2023-05-14T20:19:54.292Z,20.32
2023-05-14T20:23:03.561Z,20.37
2023-05-14T20:26:25.538Z,20.46
2023-05-14T20:29:54.652Z,20.56
2023-05-14T20:33:53.170Z,20.69
2023-05-14T20:36:57.954Z,20.79
2023-05-14T20:40:27.508Z,20.87
2023-05-14T20:43:21.002Z,20.97
2023-05-14T20:46:08.227Z,21.06
2023-05-14T20:48:47.281Z,21.17
2023-05-14T20:51:22.771Z,21.26
2023-05-14T20:54:11.094Z,21.33
2023-05-14T20:57:10.598Z,21.40
2023-05-14T20:59:40.146Z,21.44
2023-05-14T21:02:42.944Z,21.46
2023-05-14T21:06:12.634Z,21.52
2023-05-14T21:09:41.757Z,21.61
2023-05-14T21:13:11.374Z,21.67
2023-05-14T21:16:23.426Z,21.75
2023-05-14T21:19:52.537Z,21.84
2023-05-14T21:23:02.311Z,21.87
2023-05-14T21:26:25.881Z,21.89
2023-05-14T21:29:55.032Z,21.91
2023-05-14T21:33:24.477Z,21.92
2023-05-14T21:36:34.006Z,21.93
2023-05-14T21:40:03.523Z,21.94
2023-05-14T21:43:01.391Z,21.94
2023-05-14T21:45:30.677Z,21.93
2023-05-14T21:48:10.289Z,21.90
2023-05-14T21:50:39.500Z,21.88
2023-05-14T21:53:08.638Z,21.87
2023-05-14T21:55:38.095Z,21.87
2023-05-14T21:58:58.956Z,21.87
2023-05-14T22:01:28.048Z,21.88
2023-05-14T22:04:57.385Z,21.90
2023-05-14T22:08:09.501Z,21.94
2023-05-14T22:11:18.825Z,21.99
2023-05-14T22:14:14.915Z,22.06
2023-05-14T22:17:44.470Z,22.08
2023-05-14T22:21:14.325Z,22.12
2023-05-14T22:24:43.352Z,22.18
2023-05-14T22:28:12.852Z,22.26
2023-05-14T22:31:42.977Z,22.36
2023-05-14T22:35:12.153Z,22.46
2023-05-14T22:38:41.276Z,22.53
2023-05-14T22:42:01.302Z,22.61
2023-05-14T22:45:04.759Z,22.70
2023-05-14T22:47:50.394Z,22.76
2023-05-14T22:50:19.322Z,22.81
2023-05-14T22:52:48.521Z,22.86
2023-05-14T22:55:18.150Z,22.91
2023-05-14T22:57:47.341Z,22.97
2023-05-14T23:00:17.349Z,23.03
2023-05-14T23:02:46.887Z,23.07
2023-05-14T23:05:42.104Z,23.10
2023-05-14T23:08:52.964Z,23.12
2023-05-14T23:12:07.071Z,23.16
2023-05-14T23:15:16.401Z,23.21
2023-05-14T23:18:29.055Z,23.30
2023-05-14T23:21:39.482Z,23.35
2023-05-14T23:25:09.178Z,23.43
2023-05-14T23:28:38.796Z,23.46
2023-05-14T23:32:08.260Z,23.52
2023-05-14T23:35:37.916Z,23.59
2023-05-14T23:38:07.508Z,23.66
2023-05-14T23:40:36.452Z,23.68
2023-05-14T23:43:05.564Z,23.72
2023-05-14T23:45:34.484Z,23.72
2023-05-14T23:48:04.779Z,23.73
2023-05-14T23:50:34.163Z,23.72
2023-05-14T23:53:08.279Z,23.67
2023-05-14T23:55:37.114Z,23.63
2023-05-14T23:58:07.314Z,23.58
